createdAt,value
2022-12-12T00:00:10.542Z,-0.31
2022-12-12T00:02:40.800Z,-0.14
2022-12-12T00:05:10.230Z,0.10
2022-12-12T00:07:37.741Z,0.34
2022-12-12T00:10:05.651Z,0.52
2022-12-12T00:12:32.723Z,0.75
2022-12-12T00:15:00.362Z,0.86
2022-12-12T00:17:27.950Z,0.97
2022-12-12T00:19:55.381Z,1.12
2022-12-12T00:22:22.715Z,1.22
2022-12-12T00:24:50.226Z,1.34
2022-12-12T00:27:17.542Z,1.41
2022-12-12T00:29:44.706Z,1.50
2022-12-12T00:32:11.960Z,1.51
2022-12-12T00:34:39.127Z,1.56
2022-12-12T00:37:06.317Z,1.57
2022-12-12T00:39:33.301Z,1.59
2022-12-12T00:42:01.022Z,1.58
2022-12-12T00:44:28.094Z,1.60
2022-12-12T00:46:55.127Z,1.69
2022-12-12T00:49:22.340Z,1.66
2022-12-12T00:51:49.894Z,1.69
2022-12-12T00:54:17.056Z,1.73
2022-12-12T00:56:44.232Z,1.60
2022-12-12T00:59:11.776Z,1.53
2022-12-12T01:01:38.908Z,1.51
2022-12-12T01:04:06.017Z,1.49
2022-12-12T01:06:35.731Z,1.41
2022-12-12T01:09:03.010Z,1.51
2022-12-12T01:11:30.303Z,1.48
2022-12-12T01:13:57.353Z,1.45
2022-12-12T01:16:25.225Z,1.53
2022-12-12T01:18:52.580Z,1.51
2022-12-12T01:21:20.681Z,1.50
2022-12-12T01:23:48.519Z,1.57
2022-12-12T01:26:19.260Z,1.58
2022-12-12T01:28:46.717Z,1.59
2022-12-12T01:31:14.441Z,1.60
2022-12-12T01:33:46.323Z,1.63
2022-12-12T01:36:16.914Z,1.65
2022-12-12T01:38:46.465Z,1.58
2022-12-12T01:41:15.040Z,1.52
2022-12-12T01:43:42.729Z,1.52
2022-12-12T01:46:33.463Z,1.42
2022-12-12T01:49:09.845Z,1.45
2022-12-12T01:51:42.237Z,1.43
2022-12-12T01:54:18.131Z,1.30
2022-12-12T01:56:48.408Z,1.35
2022-12-12T01:59:19.460Z,1.37
2022-12-12T02:01:47.981Z,1.36
2022-12-12T02:04:17.770Z,1.33
2022-12-12T02:06:51.436Z,1.32
2022-12-12T02:09:20.912Z,1.24
2022-12-12T02:11:56.473Z,1.21
2022-12-12T02:14:36.835Z,1.07
2022-12-12T02:17:20.166Z,1.12
2022-12-12T02:20:23.421Z,1.09
2022-12-12T02:23:12.045Z,1.06
2022-12-12T02:26:08.214Z,1.01
2022-12-12T02:28:47.168Z,0.98
2022-12-12T02:31:26.233Z,0.99
2022-12-12T02:34:00.018Z,1.01
2022-12-12T02:37:05.444Z,1.00
2022-12-12T02:39:44.612Z,0.92
2022-12-12T02:42:41.092Z,0.95
2022-12-12T02:45:17.065Z,0.98
2022-12-12T02:47:52.876Z,0.94
2022-12-12T02:50:26.011Z,0.94
2022-12-12T02:52:53.161Z,0.97
2022-12-12T02:55:20.786Z,1.01
2022-12-12T02:57:48.961Z,0.98
2022-12-12T03:00:20.353Z,1.00
2022-12-12T03:02:50.517Z,0.97
2022-12-12T03:05:36.351Z,0.96
2022-12-12T03:08:14.465Z,0.81
2022-12-12T03:10:48.104Z,0.74
2022-12-12T03:13:30.378Z,0.75
2022-12-12T03:16:13.664Z,0.69
2022-12-12T03:18:52.638Z,0.75
2022-12-12T03:21:31.952Z,0.71
2022-12-12T03:24:11.354Z,0.76
2022-12-12T03:26:52.431Z,0.74
2022-12-12T03:29:26.181Z,0.71
2022-12-12T03:31:56.362Z,0.74
2022-12-12T03:34:31.097Z,0.65
2022-12-12T03:37:09.458Z,0.65
2022-12-12T03:39:40.596Z,0.67
2022-12-12T03:42:20.210Z,0.64
2022-12-12T03:44:55.735Z,0.56
2022-12-12T03:47:48.589Z,0.60
2022-12-12T03:50:42.532Z,0.59
2022-12-12T03:53:16.228Z,0.56
2022-12-12T03:55:52.095Z,0.54
2022-12-12T03:58:35.051Z,0.52
2022-12-12T04:01:08.647Z,0.50
2022-12-12T04:04:09.646Z,0.35
2022-12-12T04:06:46.086Z,0.30
2022-12-12T04:09:35.206Z,0.27
2022-12-12T04:12:37.526Z,0.31
2022-12-12T04:15:17.874Z,0.38
2022-12-12T04:17:51.130Z,0.38
2022-12-12T04:21:01.422Z,0.35
2022-12-12T04:23:49.559Z,0.38
2022-12-12T04:26:39.815Z,0.39
2022-12-12T04:29:14.971Z,0.36
2022-12-12T04:31:57.413Z,0.35
2022-12-12T04:34:34.516Z,0.29
2022-12-12T04:37:06.402Z,0.24
2022-12-12T04:39:37.184Z,0.23
2022-12-12T04:42:06.145Z,0.26
2022-12-12T04:44:35.277Z,0.23
2022-12-12T04:47:04.167Z,0.23
2022-12-12T04:49:33.871Z,0.27
2022-12-12T04:52:08.810Z,0.27
2022-12-12T04:54:50.730Z,0.22
2022-12-12T04:57:26.524Z,0.26
2022-12-12T04:59:54.259Z,0.27
2022-12-12T05:02:34.495Z,0.24
2022-12-12T05:05:12.433Z,0.24
2022-12-12T05:07:43.435Z,0.27
2022-12-12T05:10:15.000Z,0.28
2022-12-12T05:12:48.983Z,0.13
2022-12-12T05:15:18.857Z,0.12
2022-12-12T05:17:58.512Z,0.07
2022-12-12T05:20:25.826Z,0.05
2022-12-12T05:22:52.972Z,0.03
2022-12-12T05:25:22.241Z,0.01
2022-12-12T05:27:49.277Z,-0.11
2022-12-12T05:30:16.963Z,-0.11
2022-12-12T05:32:44.704Z,-0.13
2022-12-12T05:35:16.213Z,-0.17
2022-12-12T05:37:48.245Z,-0.23
2022-12-12T05:40:20.119Z,-0.28
2022-12-12T05:42:48.998Z,-0.20
2022-12-12T05:45:18.152Z,-0.32
2022-12-12T05:47:47.279Z,-0.28
2022-12-12T05:50:15.183Z,-0.30
2022-12-12T05:52:43.928Z,-0.36
2022-12-12T05:55:14.877Z,-0.28
2022-12-12T05:57:46.105Z,-0.25
2022-12-12T06:00:14.659Z,-0.23
2022-12-12T06:02:43.368Z,-0.15
2022-12-12T06:05:11.195Z,-0.10
2022-12-12T06:07:39.806Z,-0.02
2022-12-12T06:10:08.345Z,0.02
2022-12-12T06:12:38.189Z,-0.01
2022-12-12T06:15:07.578Z,0.09
2022-12-12T06:17:38.728Z,0.12
2022-12-12T06:20:07.538Z,0.09
2022-12-12T06:22:36.693Z,0.12
2022-12-12T06:25:05.265Z,0.14
2022-12-12T06:27:33.300Z,0.13
2022-12-12T06:30:01.532Z,0.12
2022-12-12T06:32:30.571Z,0.13
2022-12-12T06:34:59.431Z,0.07
2022-12-12T06:37:28.490Z,0.03
2022-12-12T06:39:56.648Z,0.09
2022-12-12T06:42:25.853Z,-0.03
2022-12-12T06:44:53.623Z,0.05
2022-12-12T06:47:21.165Z,-0.03
2022-12-12T06:49:49.207Z,-0.01
2022-12-12T06:52:17.108Z,-0.09
2022-12-12T06:54:44.467Z,-0.06
2022-12-12T06:57:13.203Z,-0.02
2022-12-12T06:59:40.822Z,0.11
2022-12-12T07:02:11.526Z,0.14
2022-12-12T07:04:39.495Z,0.27
2022-12-12T07:07:07.299Z,0.28
2022-12-12T07:09:36.928Z,0.35
2022-12-12T07:12:05.471Z,0.40
2022-12-12T07:14:33.272Z,0.50
2022-12-12T07:17:01.258Z,0.56
2022-12-12T07:19:29.585Z,0.57
2022-12-12T07:21:57.330Z,0.61
2022-12-12T10:00:18.153Z,-1.50
2022-12-12T10:02:55.332Z,-1.34
2022-12-12T10:05:27.299Z,-1.10
2022-12-12T10:08:01.071Z,-0.86
2022-12-12T10:10:39.132Z,-0.71
2022-12-12T10:13:19.131Z,-0.49
2022-12-12T10:16:09.297Z,-0.27
2022-12-12T10:19:03.417Z,-0.11
2022-12-12T10:21:33.376Z,-0.02
2022-12-12T10:24:25.399Z,0.06
2022-12-12T10:26:54.828Z,0.23
2022-12-12T10:29:26.120Z,0.29
2022-12-12T10:32:23.589Z,0.45
2022-12-12T10:38:21.488Z,0.53
2022-12-12T10:40:57.102Z,0.61
2022-12-12T10:43:34.538Z,0.66
2022-12-12T10:46:17.879Z,0.77
2022-12-12T10:48:47.362Z,0.70
2022-12-12T10:51:18.026Z,0.71
2022-12-12T10:57:20.178Z,0.71
2022-12-12T10:59:48.928Z,0.60
2022-12-12T11:05:25.258Z,0.77
2022-12-12T11:08:22.836Z,0.85
2022-12-12T11:11:42.280Z,0.82
2022-12-12T11:14:27.435Z,0.73
2022-12-12T11:16:54.583Z,0.80
2022-12-12T11:19:24.090Z,0.73
2022-12-12T11:21:53.615Z,0.81
2022-12-12T11:24:29.947Z,0.91
2022-12-12T11:26:59.945Z,0.86
2022-12-12T11:29:48.764Z,0.83
2022-12-12T11:32:29.045Z,0.88
2022-12-12T11:35:02.049Z,0.97
2022-12-12T11:37:46.863Z,0.94
2022-12-12T11:40:33.201Z,0.95
2022-12-12T11:43:19.164Z,0.98
2022-12-12T11:46:19.369Z,0.96
2022-12-12T11:48:52.610Z,0.90
2022-12-12T11:51:38.120Z,0.82
2022-12-12T11:54:15.485Z,0.66
2022-12-12T11:56:54.108Z,0.76
2022-12-12T11:59:33.176Z,0.68
2022-12-12T12:02:41.201Z,0.73
2022-12-12T12:05:46.104Z,0.65
2022-12-12T12:08:15.557Z,0.63
2022-12-12T12:11:10.699Z,0.63
2022-12-12T12:13:41.059Z,0.69
2022-12-12T12:16:20.528Z,0.67
2022-12-12T12:18:51.184Z,0.68
2022-12-12T12:21:24.343Z,0.68
2022-12-12T12:24:13.366Z,0.72
2022-12-12T12:27:01.523Z,0.71
2022-12-12T12:29:45.473Z,0.66
2022-12-12T12:33:00.153Z,0.68
2022-12-12T12:35:42.310Z,0.55
2022-12-12T12:38:27.426Z,0.47
2022-12-12T12:41:14.334Z,0.42
2022-12-12T12:44:19.952Z,0.44
2022-12-12T12:47:16.645Z,0.41
2022-12-12T12:50:07.129Z,0.40
2022-12-12T12:52:49.033Z,0.39
2022-12-12T12:55:25.432Z,0.24
2022-12-12T12:57:53.623Z,0.30
2022-12-12T13:00:27.783Z,0.29
2022-12-12T13:03:18.733Z,0.32
2022-12-12T13:05:55.189Z,0.33
2022-12-12T13:08:44.954Z,0.24
2022-12-12T13:11:38.808Z,0.29
2022-12-12T13:14:19.636Z,0.20
2022-12-12T13:16:49.713Z,0.26
2022-12-12T13:19:41.218Z,0.23
2022-12-12T13:22:17.185Z,0.25
2022-12-12T13:24:54.958Z,0.26
2022-12-12T13:27:50.644Z,0.27
2022-12-12T13:30:36.711Z,0.18
2022-12-12T13:33:14.341Z,0.26
2022-12-12T13:35:46.465Z,0.21
2022-12-12T13:38:34.013Z,0.18
2022-12-12T13:41:08.469Z,0.21
2022-12-12T13:43:39.070Z,0.22
2022-12-12T13:46:29.119Z,0.27
2022-12-12T13:49:16.165Z,0.23
2022-12-12T13:51:45.762Z,0.23
2022-12-12T13:54:14.603Z,0.19
2022-12-12T13:56:47.102Z,0.20
2022-12-12T13:59:26.474Z,0.24
2022-12-12T14:02:22.723Z,0.21
2022-12-12T14:05:13.773Z,0.22
2022-12-12T18:25:35.921Z,-2.58
2022-12-12T18:28:02.745Z,-2.46
2022-12-12T18:30:28.921Z,-2.32
2022-12-12T18:33:02.640Z,-2.16
2022-12-12T18:35:30.491Z,-1.99
2022-12-12T18:37:57.613Z,-1.86
2022-12-12T18:40:26.155Z,-1.71
2022-12-12T18:42:53.351Z,-1.58
2022-12-12T18:45:20.621Z,-1.47
2022-12-12T18:47:47.591Z,-1.41
2022-12-12T18:50:14.606Z,-1.35
2022-12-12T18:52:41.543Z,-1.26
2022-12-12T18:55:08.646Z,-1.24
2022-12-12T18:57:35.456Z,-1.20
2022-12-12T19:00:03.107Z,-1.22
2022-12-12T19:02:29.768Z,-1.15
2022-12-12T19:04:58.899Z,-1.13
2022-12-12T19:07:25.871Z,-1.10
2022-12-12T19:09:53.358Z,-1.07
2022-12-12T19:12:20.973Z,-1.03
2022-12-12T19:17:35.865Z,-1.02
2022-12-12T19:20:03.121Z,-1.04
2022-12-12T19:22:46.924Z,-1.04
2022-12-12T19:25:16.059Z,-1.05
2022-12-12T19:27:43.828Z,-1.12
2022-12-12T19:30:12.932Z,-1.11
2022-12-12T19:32:40.109Z,-1.13
2022-12-12T19:35:07.543Z,-1.19
2022-12-12T19:37:36.606Z,-1.19
2022-12-12T19:40:06.598Z,-1.14
2022-12-12T19:42:33.917Z,-1.15
2022-12-12T19:45:00.936Z,-1.17
2022-12-12T19:47:28.284Z,-1.17
2022-12-12T19:49:55.508Z,-1.09
2022-12-12T19:52:22.931Z,-1.01
2022-12-12T19:54:50.221Z,-0.94
2022-12-12T19:57:17.457Z,-0.85
2022-12-12T19:59:44.762Z,-0.74
2022-12-12T20:02:11.931Z,-0.71
2022-12-12T20:04:39.620Z,-0.60
2022-12-12T20:07:07.011Z,-0.58
2022-12-12T20:09:36.124Z,-0.53
2022-12-12T20:12:03.941Z,-0.53
2022-12-12T20:14:33.795Z,-0.48
2022-12-12T20:17:03.026Z,-0.42
2022-12-12T20:19:33.033Z,-0.52
2022-12-12T20:22:02.147Z,-0.44
2022-12-12T20:24:30.783Z,-0.46
2022-12-12T20:26:59.859Z,-0.46
2022-12-12T20:29:27.543Z,-0.57
2022-12-12T20:31:55.111Z,-0.68
2022-12-12T20:34:24.620Z,-0.74
2022-12-12T20:36:55.516Z,-0.73
2022-12-12T20:39:25.053Z,-0.85
2022-12-12T20:41:53.947Z,-0.83
2022-12-12T20:44:22.812Z,-0.81
2022-12-12T20:46:49.855Z,-0.84
2022-12-12T20:49:19.885Z,-0.85
2022-12-12T20:51:58.009Z,-0.93
2022-12-12T20:54:27.974Z,-0.97
2022-12-12T20:56:55.565Z,-1.04
2022-12-12T20:59:22.800Z,-1.08
2022-12-12T21:01:50.119Z,-1.17
2022-12-12T21:04:17.355Z,-1.21
2022-12-12T21:06:48.625Z,-1.24
2022-12-12T21:09:23.192Z,-1.29
2022-12-12T21:11:53.934Z,-1.29
2022-12-12T21:14:21.314Z,-1.33
2022-12-12T21:16:48.663Z,-1.38
2022-12-12T21:19:16.303Z,-1.42
2022-12-12T21:21:44.177Z,-1.48
2022-12-12T21:24:16.250Z,-1.55
2022-12-12T21:26:44.261Z,-1.57
2022-12-12T21:29:11.741Z,-1.56
2022-12-12T21:31:49.836Z,-1.56
2022-12-12T21:34:20.284Z,-1.56
2022-12-12T21:36:54.004Z,-1.56
2022-12-12T21:39:24.324Z,-1.52
2022-12-12T21:41:51.791Z,-1.49
2022-12-12T21:44:20.053Z,-1.48
2022-12-12T21:46:48.088Z,-1.51
2022-12-12T21:49:41.507Z,-1.58
2022-12-12T21:52:12.896Z,-1.69
2022-12-12T21:54:40.279Z,-1.81
2022-12-12T21:57:08.273Z,-1.87
2022-12-12T21:59:37.784Z,-1.91
2022-12-12T22:02:06.536Z,-1.96
2022-12-12T22:04:33.516Z,-1.99
2022-12-12T22:07:00.662Z,-2.07
2022-12-12T22:09:28.054Z,-2.02
2022-12-12T22:12:02.915Z,-2.14
2022-12-12T22:14:31.525Z,-2.12
2022-12-12T22:16:59.094Z,-2.19
2022-12-12T22:19:26.447Z,-2.22
2022-12-12T22:21:53.713Z,-2.20
2022-12-12T22:24:20.875Z,-2.15
2022-12-12T22:26:50.283Z,-2.13
2022-12-12T22:29:19.433Z,-2.10
2022-12-12T22:31:50.100Z,-2.08
2022-12-12T22:34:20.977Z,-2.00
2022-12-12T22:36:48.840Z,-1.88
2022-12-12T22:39:19.921Z,-1.87
2022-12-12T22:41:47.048Z,-1.88
2022-12-12T22:44:19.791Z,-1.79
2022-12-12T22:46:49.181Z,-1.74
2022-12-12T22:49:22.882Z,-1.66
2022-12-12T22:51:50.359Z,-1.55
2022-12-12T22:54:17.991Z,-1.53
2022-12-12T22:56:45.530Z,-1.47
2022-12-12T22:59:14.264Z,-1.42
2022-12-12T23:01:42.616Z,-1.40
2022-12-12T23:04:13.065Z,-1.34
2022-12-12T23:06:41.417Z,-1.32
2022-12-12T23:09:17.913Z,-1.25
2022-12-12T23:11:45.464Z,-1.15
2022-12-12T23:14:15.916Z,-1.07
2022-12-12T23:16:44.444Z,-1.00
2022-12-12T23:19:14.507Z,-0.94
2022-12-12T23:21:41.888Z,-0.96
2022-12-12T23:24:09.544Z,-1.01
2022-12-12T23:26:37.530Z,-1.01
2022-12-12T23:29:08.302Z,-0.97
2022-12-12T23:31:37.730Z,-0.97
2022-12-12T23:34:08.629Z,-1.00
2022-12-12T23:36:36.006Z,-1.00
2022-12-12T23:39:06.591Z,-0.94
2022-12-12T23:41:35.478Z,-0.88
2022-12-12T23:44:03.267Z,-0.81
2022-12-12T23:46:33.858Z,-0.74
2022-12-12T23:49:20.746Z,-0.67
2022-12-12T23:51:52.757Z,-0.63
2022-12-12T23:54:35.193Z,-0.61
2022-12-12T23:57:03.163Z,-0.62
2022-12-12T23:59:31.551Z,-0.64
